Nearby METAR Reports

 

KSJC - San Jose, California, USA
Distance from station: NE 9mi, 14km
Updated: Sun, 25-Feb-2018 6:53pm PST
Partly cloudy
Partly cloudy
 Wind from NNW
Wind: NNW 10 mph , 17 km/h
Temperature: 52°F , 11°C
Dew Point: 37°F , 3°C
Humidity: 58%
Barometer: 30.24 inHg , 1024 hPa
Clouds: Partly cloudy
Visibility: 10 miles , 16 km
Cloud details: Few Clouds 12000 ft
Partly cloudy 17000 ft
2018/02/26 02:53 KSJC 260253Z 34009KT 10SM FEW120 SCT170 11/03 A3024 RMK AO2 SLP239 T01110033 55000 $
KNUQ - Moffett Nas/Mtn, California, USA
Distance from station: N 9mi, 14km
Updated: Sun, 25-Feb-2018 6:56pm PST
Clear
Clear
 Wind from N
Wind: N 5 mph , 7 km/h
Temperature: 52°F , 11°C
Dew Point: 36°F , 2°C
Humidity: 54%
Barometer: 30.24 inHg , 1024 hPa
Clouds: Clear
Visibility: 10 miles , 16 km
2018/02/26 02:56 KNUQ 260256Z 36004KT 10SM CLR 11/02 A3024 RMK AO2 SLP243 T01060022 55001
 
KPAO - Palo Alto, California, USA
Distance from station: NNW 14mi, 23km
Updated: Sun, 25-Feb-2018 6:47pm PST
Clear
Clear
 Wind from NW
Wind: NW 9 mph , 15 km/h
Barometer: 30.24 inHg , 1024 hPa
Clouds: Clear
Visibility: 10 miles , 16 km
2018/02/26 02:47 KPAO 260247Z 31008KT 10SM SKC A3024
KRHV - San Jose/Reid, California, USA
Distance from station: ENE 12mi, 19km
Updated: Sun, 25-Feb-2018 6:47pm PST
Few Clouds
Few Clouds
 Wind from N
Wind: N 12 mph , 19 km/h
Temperature: 52°F , 11°C
Dew Point: 39°F , 4°C
Humidity: 62%
Barometer: 30.22 inHg , 1023.4 hPa
Clouds: Few Clouds
Visibility: 10 miles , 16 km
Cloud details: Few Clouds 3000 ft
2018/02/26 02:47 KRHV 260247Z 35010KT 10SM FEW030 11/04 A3022
 
KOAK - Oakland, California, USA
Distance from station: NNW 31mi, 50km
Updated: Sun, 25-Feb-2018 6:53pm PST
Mostly cloudy
Mostly cloudy
 Wind from W
Wind: W 13 mph , 20 km/h
Temperature: 50°F , 10°C
Wind Chill: 45°F , 7°C
Dew Point: 41°F , 5°C
Humidity: 71%
Barometer: 30.24 inHg , 1024 hPa
Clouds: Mostly cloudy
Visibility: 10 miles , 16 km
Cloud details: Few Clouds 2200 ft
Mostly cloudy 22000 ft
2018/02/26 02:53 KOAK 260253Z 28011KT 10SM FEW022 BKN220 10/05 A3024 RMK AO2 SLP239 T01000050 55006
KSQL - San Carlos Airpo, California, USA
Distance from station: NW 21mi, 34km
Updated: Sun, 25-Feb-2018 6:51pm PST
Partly cloudy
Partly cloudy
 Wind from WNW
Wind: WNW 9 mph , 15 km/h
Temperature: 50°F , 10°C
Wind Chill: 46°F , 8°C
Dew Point: 37°F , 3°C
Humidity: 62%
Barometer: 30.24 inHg , 1024 hPa
Clouds: Partly cloudy
Visibility: 10 miles , 16 km
Cloud details: Partly cloudy 20000 ft
2018/02/26 02:51 KSQL 260251Z 30008KT 10SM SCT200 10/03 A3024
 
KSFO - San Francisco, California, USA
Distance from station: NW 30mi, 49km
Updated: Sun, 25-Feb-2018 6:56pm PST
Partly cloudy
Partly cloudy
 Wind from W
Wind: W 21 mph , 33 km/h, Gust: 31 mph , 50 km/h
Temperature: 50°F , 10°C
Wind Chill: 43°F , 6°C
Dew Point: 39°F , 4°C
Humidity: 67%
Barometer: 30.23 inHg , 1023.7 hPa
Clouds: Partly cloudy
Visibility: 10 miles , 16 km
Cloud details: Few Clouds 1500 ft
Partly cloudy 15000 ft
Partly cloudy 20000 ft
2018/02/26 02:56 KSFO 260256Z 27018G27KT 10SM FEW015 SCT150 SCT200 10/04 A3023 RMK AO2 PK WND 26032/0240 SLP237 T01000039 55008 $
KE16 - San Martin, California, USA
Distance from station: ESE 27mi, 43km
Updated: Sun, 25-Feb-2018 7:15pm PST
Clear
Clear
 Wind from NW
Wind: NW 6 mph , 9 km/h
Temperature: 50°F , 10°C
Wind Chill: 48°F , 9°C
Dew Point: 32°F , 0°C
Humidity: 50%
Barometer: 30.24 inHg , 1024 hPa
Clouds: Clear
Visibility: 10 miles , 16 km
2018/02/26 03:15 KE16 260315Z AUTO 31005KT 10SM CLR 10/00 A3024 RMK AO2
 
KWVI - Watsonville, California, USA
Distance from station: SSE 27mi, 44km
Updated: Sun, 25-Feb-2018 6:53pm PST
Clear
Clear
 Wind from SSE
Wind: SSE 6 mph , 9 km/h
Temperature: 45°F , 7°C
Wind Chill: 42°F , 6°C
Dew Point: 39°F , 4°C
Humidity: 81%
Barometer: 30.23 inHg , 1023.7 hPa
Clouds: Clear
Visibility: 10 miles , 16 km
2018/02/26 02:53 KWVI 260253Z AUTO 15005KT 10SM CLR 07/04 A3023 RMK AO2 SLP238 T00720044 55000
KHAF - Half Moon Bay, California, USA
Distance from station: WNW 31mi, 50km
Updated: Sun, 25-Feb-2018 7:15pm PST
Clear
Clear
 Wind from NNW
Wind: NNW 14 mph , 22 km/h, Gust: 22 mph , 35 km/h
Temperature: 48°F , 9°C
Wind Chill: 42°F , 6°C
Dew Point: 41°F , 5°C
Humidity: 76%
Barometer: 30.23 inHg , 1023.7 hPa
Clouds: Clear
Visibility: 8 miles , 13 km
2018/02/26 03:15 KHAF 260315Z AUTO 34012G19KT 8SM CLR 09/05 A3023 RMK AO2
 
KHWD - Hayward, California, USA
Distance from station: N 28mi, 44km
Updated: Sun, 25-Feb-2018 6:54pm PST
Clear
Clear
 Wind from W
Wind: W 10 mph , 17 km/h
Temperature: 50°F , 10°C
Wind Chill: 46°F , 8°C
Dew Point: 37°F , 3°C
Humidity: 62%
Barometer: 30.24 inHg , 1024 hPa
Clouds: Clear
Visibility: 10 miles , 16 km
2018/02/26 02:54 KHWD 260254Z 28009KT 10SM CLR 10/03 A3024 RMK AO2 SLP248 T01000028 55005
KLVK - Livermore, California, USA
Distance from station: NNE 31mi, 51km
Updated: Sun, 25-Feb-2018 6:53pm PST
Clear
Clear
 Wind from SW
Wind: SW 12 mph , 19 km/h
Temperature: 48°F , 9°C
Wind Chill: 43°F , 6°C
Dew Point: 39°F , 4°C
Humidity: 71%
Barometer: 30.21 inHg , 1023 hPa
Clouds: Clear
Visibility: 10 miles , 16 km
2018/02/26 02:53 KLVK 260253Z 23010KT 10SM CLR 09/04 A3021 RMK AO2 SLP232 T00890044 55001 $